createdAt,value
2023-04-10T04:44:31.942Z,7.80
2023-04-10T04:47:11.608Z,7.81
2023-04-10T04:50:15.742Z,7.83
2023-04-10T04:53:04.239Z,7.83
2023-04-10T04:55:43.559Z,7.84
2023-04-10T04:58:30.843Z,7.88
2023-04-10T05:01:31.213Z,7.93
2023-04-10T05:04:25.253Z,7.95
2023-04-10T05:07:16.244Z,7.95
2023-04-10T05:10:02.888Z,7.97
2023-04-10T05:12:41.998Z,7.98
2023-04-10T05:15:29.302Z,8.04
2023-04-10T05:18:23.899Z,8.13
2023-04-10T05:21:21.578Z,8.23
2023-04-10T05:24:13.692Z,8.32
2023-04-10T05:27:12.984Z,8.33
2023-04-10T05:30:08.993Z,8.34
2023-04-10T05:33:01.095Z,8.35
2023-04-10T05:35:50.391Z,8.34
2023-04-10T05:38:43.763Z,8.31
2023-04-10T05:41:39.763Z,8.31
2023-04-10T05:44:28.193Z,8.27
2023-04-10T05:47:02.092Z,8.23
2023-04-10T05:50:02.365Z,8.20
2023-04-10T05:52:55.101Z,8.19
2023-04-10T05:55:37.034Z,8.20
2023-04-10T05:58:19.223Z,8.22
2023-04-10T06:01:24.855Z,8.29
2023-04-10T06:04:00.391Z,8.34
2023-04-10T06:06:33.814Z,8.38
2023-04-10T06:09:03.252Z,8.40
2023-04-10T06:11:31.962Z,8.45
2023-04-10T06:14:01.075Z,8.53
2023-04-10T06:16:49.889Z,8.62
2023-04-10T06:19:21.728Z,8.80
2023-04-10T06:21:49.850Z,9.01
2023-04-10T06:24:24.348Z,9.24
2023-04-10T06:26:53.902Z,9.47
2023-04-10T06:29:22.109Z,9.67
2023-04-10T06:31:52.020Z,9.86
2023-04-10T06:34:21.081Z,10.08
2023-04-10T06:37:00.646Z,10.30
2023-04-10T06:39:31.166Z,10.45
2023-04-10T06:41:59.744Z,10.51
2023-04-10T06:44:45.515Z,10.52
2023-04-10T06:47:13.775Z,10.56
2023-04-10T06:49:50.145Z,10.62
2023-04-10T06:52:18.596Z,10.74
2023-04-10T06:54:46.826Z,10.86
2023-04-10T06:57:16.086Z,10.97
2023-04-10T06:59:45.719Z,11.11
2023-04-10T07:02:14.277Z,11.27
2023-04-10T07:04:49.075Z,11.36
2023-04-10T07:07:19.596Z,11.37
2023-04-10T07:09:56.069Z,11.39
2023-04-10T07:12:31.772Z,11.45
2023-04-10T07:15:03.646Z,11.50
2023-04-10T07:17:32.430Z,11.53
2023-04-10T07:20:00.894Z,11.58
2023-04-10T07:22:31.040Z,11.62
2023-04-10T07:24:59.544Z,11.62
2023-04-10T07:27:31.088Z,11.60
2023-04-10T07:29:59.201Z,11.61
2023-04-10T07:32:27.414Z,11.65
2023-04-10T07:34:56.089Z,11.66
2023-04-10T07:37:30.291Z,11.70
2023-04-10T07:40:00.862Z,11.79
2023-04-10T07:42:29.221Z,11.91
2023-04-10T07:44:59.992Z,12.04
2023-04-10T07:47:28.463Z,12.12
2023-04-10T07:49:56.695Z,12.17
2023-04-10T07:52:25.542Z,12.20
2023-04-10T07:54:54.123Z,12.23
2023-04-10T07:57:24.663Z,12.25
2023-04-10T07:59:56.028Z,12.26
2023-04-10T08:02:29.950Z,12.30
2023-04-10T08:05:01.290Z,12.36
2023-04-10T08:07:30.633Z,12.37
2023-04-10T08:09:59.501Z,12.37
2023-04-10T08:12:37.294Z,12.41
2023-04-10T08:15:11.124Z,12.46
2023-04-10T08:17:58.738Z,12.49
2023-04-10T08:20:36.887Z,12.51
2023-04-10T08:23:19.155Z,12.55
2023-04-10T08:25:50.435Z,12.63
2023-04-10T08:28:19.667Z,12.69
2023-04-10T08:30:48.368Z,12.72
2023-04-10T08:33:17.522Z,12.66
2023-04-10T08:35:51.447Z,12.55
2023-04-10T08:38:25.032Z,12.46
2023-04-10T08:40:53.288Z,12.43
2023-04-10T08:43:22.054Z,12.38
2023-04-10T08:45:56.109Z,12.35
2023-04-10T08:48:27.927Z,12.34
2023-04-10T08:50:56.358Z,12.38
2023-04-10T08:53:24.958Z,12.47
2023-04-10T08:55:53.343Z,12.50
2023-04-10T08:58:21.934Z,12.53
2023-04-10T09:00:50.338Z,12.62
2023-04-10T09:03:21.736Z,12.73
2023-04-10T09:05:51.002Z,12.87
2023-04-10T09:08:20.765Z,13.03
2023-04-10T09:10:53.915Z,13.23
2023-04-10T09:13:35.619Z,13.42
2023-04-10T09:16:06.500Z,13.59
2023-04-10T09:18:51.326Z,13.66
2023-04-10T09:21:22.524Z,13.66
2023-04-10T09:24:00.148Z,13.61
2023-04-10T09:26:29.169Z,13.62
2023-04-10T09:29:07.553Z,13.72
2023-04-10T09:31:37.669Z,13.85
2023-04-10T09:34:29.498Z,13.98
2023-04-10T09:37:04.922Z,14.13
2023-04-10T09:40:31.732Z,14.23
2023-04-10T09:44:28.154Z,14.42
2023-04-10T09:47:31.759Z,14.68
2023-04-10T09:50:07.596Z,14.88
2023-04-10T09:52:41.773Z,15.06
2023-04-10T09:55:11.303Z,15.21
2023-04-10T09:57:51.624Z,15.32
2023-04-10T10:00:20.243Z,15.26
2023-04-10T10:02:56.800Z,15.11
2023-04-10T10:05:33.100Z,14.98
2023-04-10T10:08:02.431Z,14.92
2023-04-10T10:10:32.434Z,14.90
2023-04-10T10:13:02.322Z,14.97
2023-04-10T10:15:52.198Z,15.10
2023-04-10T10:18:23.322Z,15.25
2023-04-10T10:20:51.567Z,15.32
2023-04-10T10:23:26.580Z,15.48
2023-04-10T10:25:54.993Z,15.79
2023-04-10T10:28:23.213Z,16.17
2023-04-10T10:30:51.613Z,16.49
2023-04-10T10:33:20.224Z,16.62
2023-04-10T10:35:50.176Z,16.71
2023-04-10T10:38:18.621Z,16.79
2023-04-10T10:41:16.849Z,16.88
2023-04-10T10:43:45.122Z,16.89
2023-04-10T10:46:19.591Z,16.82
2023-04-10T10:49:00.441Z,16.66
2023-04-10T10:51:50.388Z,16.73
2023-04-10T10:54:32.254Z,17.00
2023-04-10T10:57:09.300Z,17.26
2023-04-10T10:59:43.442Z,17.33
2023-04-10T11:02:18.387Z,17.30
2023-04-10T11:04:48.387Z,17.20
2023-04-10T11:07:16.652Z,17.11
2023-04-10T11:09:53.639Z,16.91
2023-04-10T11:12:25.511Z,16.63
2023-04-10T11:15:01.388Z,16.46
2023-04-10T11:17:54.138Z,16.65
2023-04-10T11:20:27.463Z,17.12
2023-04-10T11:23:12.139Z,17.47
2023-04-10T11:25:53.747Z,17.60
2023-04-10T11:28:38.780Z,17.54
2023-04-10T11:31:22.792Z,17.55
2023-04-10T11:34:01.320Z,17.58
2023-04-10T11:36:29.519Z,17.55
2023-04-10T11:38:57.703Z,17.38
2023-04-10T11:41:30.871Z,17.17
2023-04-10T11:44:03.155Z,16.99
2023-04-10T11:46:32.277Z,16.90
2023-04-10T11:49:01.892Z,16.77
2023-04-10T11:51:31.079Z,16.62
2023-04-10T11:54:21.706Z,16.49
2023-04-10T11:57:01.585Z,16.32
2023-04-10T11:59:31.037Z,16.17
2023-04-10T12:02:09.571Z,16.04
2023-04-10T12:04:38.413Z,15.95
2023-04-10T12:07:08.126Z,15.95
2023-04-10T12:09:36.515Z,15.98
2023-04-10T12:12:06.045Z,16.07
2023-04-10T12:14:36.483Z,16.16
2023-04-10T12:17:06.373Z,16.29
2023-04-10T12:19:53.422Z,16.35
2023-04-10T12:22:22.359Z,16.40
2023-04-10T12:24:54.204Z,16.49
2023-04-10T12:27:23.670Z,16.58
2023-04-10T12:29:54.253Z,16.63
2023-04-10T12:32:22.830Z,16.64
2023-04-10T12:34:57.415Z,16.58
2023-04-10T12:37:26.160Z,16.50
2023-04-10T12:40:07.560Z,16.34
2023-04-10T12:42:40.263Z,16.14
2023-04-10T12:45:10.199Z,16.00
2023-04-10T12:47:47.137Z,15.90
2023-04-10T12:50:19.123Z,15.87
2023-04-10T12:53:09.152Z,15.93
2023-04-10T12:55:38.119Z,16.17
2023-04-10T12:58:20.269Z,16.43
2023-04-10T13:00:48.994Z,16.60
2023-04-10T13:03:17.400Z,16.38
2023-04-10T13:05:46.188Z,15.93
2023-04-10T13:08:14.727Z,15.44
2023-04-10T13:10:43.678Z,14.96
2023-04-10T13:13:14.434Z,14.58
2023-04-10T13:15:43.293Z,14.24
2023-04-10T13:18:11.728Z,14.01
2023-04-10T13:20:40.798Z,13.86
2023-04-10T13:23:10.082Z,13.78
2023-04-10T13:25:40.077Z,13.74
